createdAt,value
2018-12-30T00:01:20.679Z,20.03
2018-12-30T00:03:51.093Z,17.37
2018-12-30T00:06:24.437Z,19.27
2018-12-30T00:08:53.662Z,20.30
2018-12-30T00:11:22.991Z,19.27
2018-12-30T00:13:52.600Z,19.00
2018-12-30T00:16:21.800Z,20.00
2018-12-30T00:18:50.738Z,19.80
2018-12-30T00:21:19.598Z,19.37
2018-12-30T00:23:48.464Z,18.40
2018-12-30T00:26:17.328Z,19.93
2018-12-30T00:28:46.281Z,18.00
2018-12-30T00:31:15.512Z,20.70
2018-12-30T00:33:44.468Z,18.60
2018-12-30T00:36:13.637Z,19.07
2018-12-30T00:38:42.598Z,18.90
2018-12-30T00:41:11.828Z,18.90
2018-12-30T00:43:40.696Z,17.53
2018-12-30T00:46:10.026Z,17.77
2018-12-30T00:48:38.973Z,17.13
2018-12-30T00:51:07.821Z,17.03
2018-12-30T00:53:36.773Z,15.40
2018-12-30T00:56:06.102Z,16.40
2018-12-30T00:58:35.354Z,14.70
2018-12-30T01:01:04.700Z,13.60
2018-12-30T01:03:33.731Z,13.67
2018-12-30T01:06:02.585Z,14.30
2018-12-30T01:08:31.900Z,13.57
2018-12-30T01:11:00.976Z,14.17
2018-12-30T01:13:29.925Z,14.77
2018-12-30T01:15:58.856Z,13.10
2018-12-30T01:18:28.187Z,13.40
2018-12-30T01:20:57.486Z,13.47
2018-12-30T01:23:27.078Z,13.30
2018-12-30T01:25:56.297Z,13.40
2018-12-30T01:28:25.221Z,12.20
2018-12-30T01:30:54.176Z,12.47
2018-12-30T01:33:23.357Z,11.60
2018-12-30T01:35:52.321Z,12.03
2018-12-30T01:38:21.534Z,11.63
2018-12-30T01:40:50.788Z,12.40
2018-12-30T01:43:19.649Z,12.13
2018-12-30T01:45:49.348Z,13.47
2018-12-30T01:48:18.617Z,14.10
2018-12-30T01:50:47.836Z,15.93
2018-12-30T01:53:16.699Z,15.10
2018-12-30T01:55:45.934Z,17.50
2018-12-30T01:58:15.063Z,17.40
2018-12-30T02:00:43.935Z,17.90
2018-12-30T02:03:12.872Z,19.70
2018-12-30T02:05:41.746Z,21.30
2018-12-30T02:08:10.617Z,20.43
2018-12-30T02:10:39.569Z,17.37
2018-12-30T02:13:08.887Z,21.70
2018-12-30T02:15:38.093Z,21.20
2018-12-30T02:18:07.284Z,20.13
2018-12-30T02:20:36.149Z,19.20
2018-12-30T02:23:05.004Z,20.13
2018-12-30T02:25:34.166Z,19.00
2018-12-30T02:28:03.472Z,21.00
2018-12-30T02:30:32.343Z,19.27
2018-12-30T02:33:01.878Z,20.13
2018-12-30T02:35:31.063Z,19.63
2018-12-30T02:38:00.369Z,19.83
2018-12-30T02:40:29.775Z,19.07
2018-12-30T02:42:58.629Z,18.97
2018-12-30T02:45:27.500Z,19.90
2018-12-30T02:47:56.365Z,19.40
2018-12-30T02:50:25.393Z,19.43
2018-12-30T02:52:54.317Z,18.00
2018-12-30T02:55:23.201Z,18.80
2018-12-30T02:57:52.351Z,19.33
2018-12-30T03:00:21.608Z,17.57
2018-12-30T03:02:50.619Z,17.83
2018-12-30T03:05:19.966Z,18.17
2018-12-30T03:07:48.911Z,18.83
2018-12-30T03:10:17.923Z,16.57
2018-12-30T03:12:47.095Z,16.43
2018-12-30T03:15:15.955Z,16.30
2018-12-30T03:17:45.233Z,17.10
2018-12-30T03:20:14.478Z,11.80
2018-12-30T03:22:43.353Z,13.90
2018-12-30T03:25:12.291Z,11.93
2018-12-30T03:27:41.561Z,8.90
2018-12-30T03:30:10.490Z,9.00
2018-12-30T03:32:39.371Z,8.00
2018-12-30T03:35:08.376Z,8.60
2018-12-30T03:37:37.313Z,9.27
2018-12-30T03:40:07.105Z,7.63
2018-12-30T03:42:36.334Z,6.40
2018-12-30T03:45:05.594Z,6.80
2018-12-30T03:47:34.538Z,6.50
2018-12-30T03:50:03.828Z,7.57
2018-12-30T03:52:33.099Z,5.80
2018-12-30T03:55:01.945Z,6.43
2018-12-30T03:57:30.815Z,5.70
2018-12-30T03:59:59.749Z,6.13
2018-12-30T04:02:28.622Z,9.20
2018-12-30T04:04:58.099Z,8.80
2018-12-30T04:07:27.061Z,10.90
2018-12-30T04:09:55.995Z,12.20
2018-12-30T04:12:24.860Z,12.17
2018-12-30T04:14:54.004Z,11.57
2018-12-30T04:17:22.889Z,10.13
2018-12-30T04:19:51.746Z,10.40
2018-12-30T04:22:20.956Z,11.10
2018-12-30T04:24:49.817Z,10.00
2018-12-30T04:27:18.684Z,10.60
2018-12-30T04:29:47.544Z,10.53
2018-12-30T04:32:16.416Z,10.90
2018-12-30T04:34:45.351Z,9.23
2018-12-30T04:37:14.223Z,6.17
2018-12-30T04:39:43.174Z,6.83
2018-12-30T04:42:12.028Z,5.73
2018-12-30T04:44:41.036Z,6.00
2018-12-30T04:47:10.402Z,6.17
2018-12-30T04:49:39.570Z,6.30
2018-12-30T04:52:08.441Z,6.90
2018-12-30T04:54:37.377Z,5.47
2018-12-30T04:57:06.323Z,5.50
2018-12-30T04:59:35.177Z,5.40
2018-12-30T05:02:04.176Z,7.50
2018-12-30T05:04:33.737Z,6.73
2018-12-30T05:07:02.933Z,6.17
2018-12-30T05:09:32.154Z,6.30
2018-12-30T05:12:01.013Z,5.93
2018-12-30T05:14:29.880Z,6.20
2018-12-30T05:16:59.117Z,5.90
2018-12-30T05:19:27.985Z,5.80
2018-12-30T05:21:56.841Z,6.17
2018-12-30T05:24:26.031Z,6.53
2018-12-30T05:26:55.189Z,6.20
2018-12-30T05:29:24.132Z,5.97
2018-12-30T05:31:53.324Z,5.90
2018-12-30T05:34:22.464Z,6.30
2018-12-30T05:36:51.569Z,6.00
2018-12-30T05:39:20.454Z,6.30
2018-12-30T05:41:49.384Z,5.97
2018-12-30T05:44:18.249Z,4.70
2018-12-30T05:46:47.105Z,6.87
2018-12-30T05:49:15.977Z,7.00
2018-12-30T05:51:45.122Z,6.50
2018-12-30T05:54:14.745Z,5.73
2018-12-30T05:56:43.684Z,6.23
2018-12-30T05:59:12.771Z,5.60
2018-12-30T06:01:41.624Z,5.43
2018-12-30T06:04:10.569Z,6.07
2018-12-30T06:06:39.425Z,5.10
2018-12-30T06:09:08.691Z,5.50
2018-12-30T06:11:37.893Z,5.93
2018-12-30T06:14:06.833Z,6.00
2018-12-30T06:16:35.684Z,5.77
2018-12-30T06:19:05.072Z,5.63
2018-12-30T06:21:34.007Z,5.93
2018-12-30T06:24:02.869Z,6.40
2018-12-30T06:26:31.718Z,6.00
2018-12-30T06:29:00.885Z,5.80
2018-12-30T06:31:29.740Z,6.50
2018-12-30T06:33:58.689Z,5.90
2018-12-30T06:36:27.816Z,6.40
2018-12-30T06:38:56.685Z,5.73
2018-12-30T06:41:25.915Z,5.87
2018-12-30T06:43:54.791Z,6.80
2018-12-30T06:46:24.041Z,5.77
2018-12-30T06:48:52.908Z,6.27
2018-12-30T06:51:22.097Z,5.83
2018-12-30T06:53:51.230Z,6.00
2018-12-30T06:56:20.485Z,6.23
2018-12-30T06:58:49.628Z,6.10
2018-12-30T07:01:18.554Z,6.40
2018-12-30T07:03:47.867Z,5.90
2018-12-30T07:06:16.700Z,6.40
2018-12-30T07:08:45.965Z,5.90
2018-12-30T07:11:15.161Z,6.50
2018-12-30T07:13:44.664Z,6.13
2018-12-30T07:16:13.797Z,5.70
2018-12-30T07:18:42.964Z,5.53
2018-12-30T07:21:12.158Z,6.13
2018-12-30T07:23:41.694Z,6.63
2018-12-30T07:26:10.965Z,5.70
2018-12-30T07:28:40.165Z,6.10
2018-12-30T07:31:09.017Z,5.90
2018-12-30T07:33:37.965Z,5.70
2018-12-30T07:36:07.245Z,6.07
2018-12-30T07:38:36.124Z,5.47
2018-12-30T07:41:05.100Z,6.03
2018-12-30T07:43:34.352Z,5.20
2018-12-30T07:46:03.545Z,5.63
2018-12-30T07:48:32.480Z,5.10
2018-12-30T07:51:01.340Z,5.83
2018-12-30T07:53:30.209Z,6.30
2018-12-30T07:55:59.403Z,5.53
2018-12-30T07:58:28.606Z,5.70
2018-12-30T08:00:57.461Z,6.70
2018-12-30T08:03:26.684Z,6.10
2018-12-30T08:05:55.884Z,5.87
2018-12-30T08:08:25.082Z,5.87
2018-12-30T08:10:54.280Z,6.13
2018-12-30T08:13:23.231Z,6.63
2018-12-30T08:15:52.093Z,7.17
2018-12-30T08:18:20.964Z,6.40
2018-12-30T08:20:49.986Z,7.77
2018-12-30T08:23:21.685Z,7.30
2018-12-30T08:25:49.778Z,7.60
2018-12-30T08:28:24.988Z,8.17
2018-12-30T08:30:49.220Z,7.60
2018-12-30T08:33:18.167Z,7.87
2018-12-30T08:35:47.030Z,6.57
2018-12-30T08:38:15.889Z,7.80
2018-12-30T08:40:44.781Z,7.70
2018-12-30T08:43:13.717Z,8.17
2018-12-30T08:45:42.652Z,7.90
2018-12-30T08:48:11.510Z,8.67
2018-12-30T08:50:40.390Z,8.80
2018-12-30T08:53:09.312Z,8.50
2018-12-30T08:55:38.205Z,10.20
2018-12-30T08:58:07.060Z,8.60
2018-12-30T09:00:36.352Z,8.27
2018-12-30T09:03:05.229Z,7.93
2018-12-30T09:05:34.096Z,7.77
2018-12-30T09:08:03.024Z,7.80
2018-12-30T09:10:32.177Z,8.17
2018-12-30T09:13:01.372Z,8.70
2018-12-30T09:15:30.574Z,8.00
2018-12-30T09:17:59.505Z,9.27
2018-12-30T09:20:28.441Z,7.60
2018-12-30T09:22:57.304Z,9.80
2018-12-30T09:25:26.245Z,8.57
2018-12-30T09:27:55.553Z,7.97
2018-12-30T09:30:24.420Z,8.77
2018-12-30T09:32:53.272Z,9.43
2018-12-30T09:35:22.222Z,9.40
2018-12-30T09:37:51.515Z,8.60
2018-12-30T09:40:20.835Z,9.60
2018-12-30T09:42:49.690Z,8.60
2018-12-30T09:45:18.557Z,7.83
2018-12-30T09:47:47.695Z,8.37
2018-12-30T09:50:16.713Z,8.10
2018-12-30T09:52:45.887Z,9.10
2018-12-30T09:55:14.762Z,8.17
2018-12-30T09:57:43.615Z,8.53
2018-12-30T10:00:12.877Z,9.17
2018-12-30T10:02:41.731Z,7.83
2018-12-30T10:05:10.950Z,8.50
2018-12-30T10:07:39.809Z,8.13
2018-12-30T10:10:08.831Z,7.90
2018-12-30T10:12:37.683Z,9.00
2018-12-30T10:15:09.824Z,8.10
2018-12-30T10:17:37.573Z,10.43
2018-12-30T10:20:07.460Z,10.10
2018-12-30T10:22:36.496Z,10.40
2018-12-30T10:25:05.785Z,9.17
2018-12-30T10:27:34.797Z,9.47
2018-12-30T10:30:04.952Z,8.70
2018-12-30T10:32:34.118Z,9.17
2018-12-30T10:35:03.058Z,7.97
2018-12-30T10:37:31.937Z,9.40
2018-12-30T10:40:01.160Z,8.20
2018-12-30T10:42:30.026Z,7.70
2018-12-30T10:44:58.872Z,8.37
2018-12-30T10:47:28.138Z,8.37
2018-12-30T10:49:57.645Z,8.17
2018-12-30T10:52:26.514Z,7.70
2018-12-30T10:54:55.439Z,8.87
2018-12-30T10:57:24.461Z,9.00
2018-12-30T10:59:53.648Z,8.97
2018-12-30T11:02:22.590Z,9.27
2018-12-30T11:04:51.441Z,8.10
2018-12-30T11:07:20.600Z,9.20
2018-12-30T11:09:49.798Z,8.60
2018-12-30T11:12:18.664Z,9.57
2018-12-30T11:14:47.588Z,10.20
2018-12-30T11:17:16.613Z,7.97
2018-12-30T11:19:45.879Z,9.33
2018-12-30T11:22:14.974Z,8.17
2018-12-30T11:24:43.955Z,8.53
2018-12-30T11:27:13.156Z,8.00
2018-12-30T11:29:42.084Z,9.10
2018-12-30T11:32:11.176Z,7.90
2018-12-30T11:34:40.552Z,8.80
2018-12-30T11:37:09.971Z,9.40
2018-12-30T11:39:39.256Z,10.17
2018-12-30T11:42:08.464Z,9.33
2018-12-30T11:44:37.468Z,8.03
2018-12-30T11:47:06.491Z,8.80
2018-12-30T11:49:35.361Z,8.13
2018-12-30T11:52:04.304Z,9.47
2018-12-30T11:54:33.452Z,9.40
2018-12-30T11:57:02.326Z,8.73
2018-12-30T11:59:31.267Z,9.07
2018-12-30T12:02:00.214Z,8.10
2018-12-30T12:04:29.139Z,8.40
2018-12-30T12:06:58.374Z,9.67
2018-12-30T12:09:27.220Z,8.87
2018-12-30T12:11:56.177Z,8.47
2018-12-30T12:14:25.032Z,9.30
2018-12-30T12:16:53.995Z,9.60
2018-12-30T12:19:23.261Z,9.40
2018-12-30T12:21:52.193Z,9.27
2018-12-30T12:24:24.565Z,8.60
2018-12-30T12:26:51.737Z,9.10
2018-12-30T12:29:20.863Z,9.33
2018-12-30T12:31:49.728Z,9.27
2018-12-30T12:34:18.953Z,8.80
2018-12-30T12:36:47.946Z,8.80
2018-12-30T12:39:17.164Z,9.27
2018-12-30T12:41:46.043Z,8.50
2018-12-30T12:44:15.051Z,8.50
2018-12-30T12:46:43.997Z,8.13
2018-12-30T12:49:12.993Z,10.20
2018-12-30T12:51:42.575Z,9.00
2018-12-30T12:54:11.925Z,8.10
2018-12-30T12:56:41.087Z,9.07
2018-12-30T12:59:09.950Z,8.17
2018-12-30T13:01:39.343Z,8.33
2018-12-30T13:04:08.356Z,8.20
2018-12-30T13:06:37.209Z,7.80
2018-12-30T13:09:07.188Z,8.30
2018-12-30T13:11:36.518Z,8.20
2018-12-30T13:14:05.456Z,7.80
2018-12-30T13:16:34.705Z,7.93
2018-12-30T13:19:03.648Z,7.07
2018-12-30T13:21:32.837Z,7.80
2018-12-30T13:24:01.781Z,8.20
2018-12-30T13:26:30.644Z,7.77
2018-12-30T13:28:59.847Z,8.27
2018-12-30T13:31:28.797Z,7.60
2018-12-30T13:33:57.972Z,8.17
2018-12-30T13:36:27.273Z,7.90
2018-12-30T13:38:56.468Z,8.80
2018-12-30T13:41:25.765Z,8.73
2018-12-30T13:43:54.640Z,8.70
2018-12-30T13:46:23.508Z,7.77
2018-12-30T13:48:52.445Z,8.23
2018-12-30T13:51:21.464Z,8.63
2018-12-30T13:53:50.954Z,8.57
2018-12-30T13:56:20.245Z,8.53
2018-12-30T13:58:49.280Z,9.00
2018-12-30T14:01:18.438Z,8.40
2018-12-30T14:03:47.469Z,8.77
2018-12-30T14:06:16.726Z,8.23
2018-12-30T14:08:45.597Z,9.07
2018-12-30T14:11:15.121Z,9.30
2018-12-30T14:13:44.325Z,9.40
2018-12-30T14:16:13.196Z,9.03
2018-12-30T14:18:42.128Z,8.70
2018-12-30T14:21:10.985Z,8.00
2018-12-30T14:23:39.961Z,8.77
2018-12-30T14:26:08.880Z,9.13
2018-12-30T14:28:37.752Z,8.13
2018-12-30T14:31:06.677Z,9.53
2018-12-30T14:33:35.909Z,10.00
2018-12-30T14:36:05.156Z,9.23
2018-12-30T14:38:34.035Z,8.70
2018-12-30T14:41:03.002Z,9.60
2018-12-30T14:43:32.177Z,9.50
2018-12-30T14:46:01.109Z,9.97
2018-12-30T14:48:29.972Z,8.57
2018-12-30T14:50:59.200Z,9.33
2018-12-30T14:53:28.225Z,10.77
2018-12-30T14:55:57.177Z,11.17
2018-12-30T14:58:26.176Z,10.70
2018-12-30T15:00:56.229Z,11.30
2018-12-30T15:03:25.140Z,11.13
2018-12-30T15:05:54.924Z,10.90
2018-12-30T15:08:23.836Z,11.00
2018-12-30T15:10:53.073Z,10.17
2018-12-30T15:13:22.003Z,10.30
2018-12-30T15:15:51.705Z,9.93
2018-12-30T15:18:20.571Z,10.20
2018-12-30T15:20:49.454Z,10.57
2018-12-30T15:23:18.638Z,9.27
2018-12-30T15:25:47.918Z,8.17
2018-12-30T15:28:16.846Z,8.40
2018-12-30T15:30:45.789Z,7.70
2018-12-30T15:33:14.733Z,8.53
2018-12-30T15:35:43.865Z,8.60
2018-12-30T15:38:12.729Z,9.47
2018-12-30T15:40:41.685Z,9.10
2018-12-30T15:43:10.540Z,10.10
2018-12-30T15:45:39.692Z,10.20
2018-12-30T15:48:08.634Z,10.07
2018-12-30T15:50:37.885Z,9.30
2018-12-30T15:53:06.892Z,9.70
2018-12-30T15:55:35.844Z,10.23
2018-12-30T15:58:04.865Z,10.50
2018-12-30T16:00:33.753Z,11.10
2018-12-30T16:03:02.694Z,10.17
2018-12-30T16:05:31.563Z,9.07
2018-12-30T16:08:00.412Z,10.10
2018-12-30T16:10:29.633Z,10.00
2018-12-30T16:12:58.565Z,9.87
2018-12-30T16:15:27.524Z,9.90
2018-12-30T16:17:56.387Z,11.10
2018-12-30T16:20:25.337Z,11.17
2018-12-30T16:22:54.196Z,10.63
2018-12-30T16:25:27.181Z,10.60
2018-12-30T16:27:54.097Z,11.37
2018-12-30T16:30:22.989Z,11.77
2018-12-30T16:32:51.931Z,11.53
2018-12-30T16:35:21.181Z,11.77
2018-12-30T16:37:50.059Z,9.23
2018-12-30T16:40:19.008Z,9.97
2018-12-30T16:42:48.184Z,9.80
2018-12-30T16:45:17.118Z,12.07
2018-12-30T16:47:46.144Z,10.10
2018-12-30T16:50:15.414Z,9.60
2018-12-30T16:52:44.301Z,10.00
2018-12-30T16:55:13.237Z,11.33
2018-12-30T16:57:42.267Z,10.10
2018-12-30T17:00:13.598Z,11.10
2018-12-30T17:02:42.869Z,11.23
2018-12-30T17:05:11.890Z,13.43
2018-12-30T17:07:40.778Z,13.50
2018-12-30T17:10:10.276Z,22.23
2018-12-30T17:12:39.548Z,26.23
2018-12-30T17:15:08.985Z,18.07
2018-12-30T17:17:38.233Z,14.10
2018-12-30T17:20:07.392Z,13.47
2018-12-30T17:22:36.272Z,14.27
2018-12-30T17:25:05.714Z,14.00
2018-12-30T17:27:34.807Z,13.93
2018-12-30T17:30:04.134Z,15.33
2018-12-30T17:32:33.326Z,14.90
2018-12-30T17:35:02.468Z,13.10
2018-12-30T17:37:31.617Z,12.67
2018-12-30T17:40:00.877Z,13.30
2018-12-30T17:42:29.833Z,14.47
2018-12-30T17:44:58.763Z,12.90
2018-12-30T17:47:27.637Z,12.70
2018-12-30T17:49:56.789Z,14.03
2018-12-30T17:52:25.766Z,13.90
2018-12-30T17:54:54.635Z,14.30
2018-12-30T17:57:23.521Z,13.80
2018-12-30T17:59:52.778Z,13.57
2018-12-30T18:02:21.708Z,14.47
2018-12-30T18:04:50.737Z,13.93
2018-12-30T18:07:20.348Z,14.03
2018-12-30T18:09:49.250Z,13.13
2018-12-30T18:12:18.247Z,14.60
2018-12-30T18:14:47.477Z,14.23
2018-12-30T18:17:16.942Z,14.03
2018-12-30T18:19:45.818Z,13.00
2018-12-30T18:22:14.877Z,13.20
2018-12-30T18:24:43.753Z,13.77
2018-12-30T18:27:13.331Z,12.70
2018-12-30T18:29:42.916Z,13.90
2018-12-30T18:32:11.966Z,11.63
2018-12-30T18:34:40.981Z,10.30
2018-12-30T18:37:10.245Z,10.40
2018-12-30T18:39:39.218Z,10.77
2018-12-30T18:42:08.233Z,11.60
2018-12-30T18:44:37.123Z,12.63
2018-12-30T18:47:06.060Z,12.00
2018-12-30T18:49:35.096Z,12.47
2018-12-30T18:52:04.034Z,12.73
2018-12-30T18:54:32.909Z,10.90
2018-12-30T18:57:01.781Z,10.87
2018-12-30T18:59:30.662Z,11.03
2018-12-30T19:01:59.960Z,11.47
2018-12-30T19:04:29.565Z,11.40
2018-12-30T19:06:58.425Z,12.90
2018-12-30T19:09:27.466Z,11.80
2018-12-30T19:11:56.398Z,13.07
2018-12-30T19:14:25.272Z,14.20
2018-12-30T19:16:54.829Z,12.70
2018-12-30T19:19:23.789Z,11.70
2018-12-30T19:21:52.725Z,11.13
2018-12-30T19:24:21.885Z,10.27
2018-12-30T19:26:51.160Z,11.43
2018-12-30T19:29:20.780Z,11.90
2018-12-30T19:31:49.753Z,13.23
2018-12-30T19:34:18.706Z,14.43
2018-12-30T19:36:47.577Z,14.37
2018-12-30T19:39:16.541Z,14.93
2018-12-30T19:41:45.419Z,16.93
2018-12-30T19:44:14.288Z,15.40
2018-12-30T19:46:43.157Z,12.80
2018-12-30T19:49:12.669Z,14.20
2018-12-30T19:51:41.931Z,13.23
2018-12-30T19:54:11.368Z,12.97
2018-12-30T19:56:40.568Z,12.27
2018-12-30T19:59:09.771Z,12.90
2018-12-30T20:01:39.071Z,13.50
2018-12-30T20:04:08.268Z,11.20
2018-12-30T20:06:37.198Z,10.20
2018-12-30T20:09:07.845Z,11.13
2018-12-30T20:11:36.697Z,10.37
2018-12-30T20:14:05.999Z,9.90
2018-12-30T20:16:34.926Z,8.70
2018-12-30T20:19:04.225Z,9.67
2018-12-30T20:21:33.301Z,9.03
2018-12-30T20:24:02.171Z,11.33
2018-12-30T20:26:31.126Z,7.93
2018-12-30T20:29:00.065Z,7.60
2018-12-30T20:31:28.932Z,9.20
2018-12-30T20:33:57.783Z,11.83
2018-12-30T20:36:26.664Z,12.37
2018-12-30T20:38:55.599Z,12.37
2018-12-30T20:41:24.492Z,12.67
2018-12-30T20:43:53.522Z,10.73
2018-12-30T20:46:22.397Z,10.10
2018-12-30T20:48:51.596Z,9.27
2018-12-30T20:51:20.734Z,8.80
2018-12-30T20:53:49.656Z,8.10
2018-12-30T20:56:18.532Z,9.00
2018-12-30T20:58:48.159Z,9.47
2018-12-30T21:01:18.162Z,9.50
2018-12-30T21:03:47.029Z,10.20
2018-12-30T21:06:16.122Z,9.83
2018-12-30T21:08:44.976Z,10.77
2018-12-30T21:11:14.525Z,12.33
2018-12-30T21:13:43.814Z,14.20
2018-12-30T21:16:13.380Z,14.40
2018-12-30T21:18:42.569Z,13.37
2018-12-30T21:21:11.493Z,13.60
2018-12-30T21:23:40.877Z,14.73
2018-12-30T21:26:10.070Z,13.10
2018-12-30T21:28:39.270Z,13.57
2018-12-30T21:31:08.476Z,14.33
2018-12-30T21:33:37.770Z,13.70
2018-12-30T21:36:09.860Z,12.97
2018-12-30T21:38:39.084Z,13.17
2018-12-30T21:41:11.067Z,12.50
2018-12-30T21:43:40.293Z,12.50
2018-12-30T21:46:09.174Z,14.10
2018-12-30T21:48:38.385Z,13.83
2018-12-30T21:51:07.337Z,13.17
2018-12-30T21:53:36.205Z,13.30
2018-12-30T21:56:05.644Z,13.93
2018-12-30T21:58:34.576Z,13.60
2018-12-30T22:01:03.601Z,15.00
2018-12-30T22:03:32.817Z,13.03
2018-12-30T22:06:01.766Z,11.20
2018-12-30T22:08:30.637Z,11.80
2018-12-30T22:11:01.364Z,13.00
2018-12-30T22:13:30.378Z,11.70
2018-12-30T22:15:59.372Z,12.63
2018-12-30T22:18:28.522Z,12.67
2018-12-30T22:20:57.365Z,13.70
2018-12-30T22:23:26.585Z,12.97
2018-12-30T22:25:55.461Z,13.37
2018-12-30T22:28:24.808Z,12.97
2018-12-30T22:30:53.896Z,13.77
2018-12-30T22:33:23.358Z,13.20
2018-12-30T22:35:52.947Z,14.40
2018-12-30T22:38:23.343Z,11.87
2018-12-30T22:40:52.262Z,12.83
2018-12-30T22:43:21.121Z,13.10
2018-12-30T22:45:50.060Z,13.07
2018-12-30T22:48:18.920Z,13.70
2018-12-30T22:50:47.801Z,14.27
2018-12-30T22:53:16.970Z,14.50
2018-12-30T22:55:46.238Z,15.20
2018-12-30T22:58:15.113Z,14.93
2018-12-30T23:00:59.653Z,12.90
2018-12-30T23:03:28.602Z,12.77
2018-12-30T23:05:57.482Z,12.07
2018-12-30T23:08:26.702Z,12.60
2018-12-30T23:10:55.573Z,12.87
2018-12-30T23:13:24.515Z,13.40
2018-12-30T23:15:53.465Z,12.57
2018-12-30T23:18:22.387Z,12.67
2018-12-30T23:20:51.822Z,12.70
2018-12-30T23:23:20.687Z,12.70
2018-12-30T23:25:49.545Z,13.33
2018-12-30T23:28:18.559Z,13.33
2018-12-30T23:30:47.422Z,12.80
2018-12-30T23:33:16.301Z,12.97
2018-12-30T23:35:45.240Z,13.23
2018-12-30T23:38:14.264Z,12.77
2018-12-30T23:40:43.503Z,13.27
2018-12-30T23:43:12.376Z,13.70
2018-12-30T23:45:41.769Z,12.57
2018-12-30T23:48:10.756Z,13.10
2018-12-30T23:50:39.685Z,12.73
2018-12-30T23:53:08.842Z,14.23
2018-12-30T23:55:38.061Z,14.30
2018-12-30T23:58:07.280Z,13.90
